Webcam op het Zuiden Meer informatie Webcam op het Zuiden


Webcam op het Westen Meer informatie Webcam op het Westen


Onweer radar Meer informatie blitzortung!


Regen radar  rain snow radar


Lokaal brand risico:
CBI


Regionaal brand risico: Meer informatie


Lokaal brand risico:
Gebaseerd op actuele waarde
CBI


Bezoek ook deze websites:

Template documentation
and downloads

And another site



Wind van: 16-02-2020 10:00 tot: 19:00 waarschuwing voor: Wind niveau: Geel info button
Kans op zware windstoten van 75-90 km/u.Kans op windstoten.Verkeer en buitenactiviteiten kunnen hinder ondervinden.Volg weerberichten en waarschuwingen.

METAR rapporten vliegvelden

   
ETWM - Meppen, Germany
Afstand tot: O 29 km
Gewijzigd: 16-02-2020 20:20
  
  
   Wind: Westen 24.1 km/h<br />Gust to 24.1 km/h
Wind: Westen 24.1 km/h
Gust to 24.1 km/h
Temperatuur: 9°C
Voelt als: 6°C
Dauwpunt: 7°C
Vochtigheid: 87%
Barometer: 998 hPa
ETWM 161920Z AUTO 27013G23KT //// // ////// 09/07 Q0998 ///
EHGG - Groningen/Eelde, Netherlands
Afstand tot: NNW 47 km
Gewijzigd: 16-02-2020 20:25
Wat regen mogelijk, Motregen, Gedeeltelijk bewolkt  
Wat regen mogelijk, Motregen, Gedeeltelijk bewolkt  
   Wind: ZW 25.9 km/h
Wind: ZW 25.9 km/h
Temperatuur: 8°C
Voelt als: 4°C
Dauwpunt: 7°C
Vochtigheid: 93%
Barometer: 995 hPa
Bewolking: Gedeeltelijk bewolkt
Zicht: meer dan 10 km
Bewolking: Licht bewolkt 1100 ft,
Licht bewolkt 1500 ft,
Gedeeltelijk bewolkt 3900 ft
EHGG 161925Z AUTO 22014KT 190V250 9999 -RADZ FEW011 FEW015CB SCT039 08/07 Q0995 BECMG NSW
EDDG - Muenster/Osnabru, Germany
Afstand tot: ZO 87 km
Gewijzigd: 16-02-2020 20:20
Regen, Grotendeels bewolkt  
Regen, Grotendeels bewolkt  
   Wind: Westen 33.3 km/h<br />Gust to 33.3 km/h
Wind: Westen 33.3 km/h
Gust to 33.3 km/h
Temperatuur: 9°C
Voelt als: 5°C
Dauwpunt: 7°C
Vochtigheid: 87%
Barometer: 1001 hPa
Bewolking: Grotendeels bewolkt
Zicht: 7 km
Bewolking: Licht bewolkt 2500 ft,
Grotendeels bewolkt 4500 ft
EDDG 161920Z 28018G31KT 250V310 7000 RA FEW025 BKN045 09/07 Q1001 BECMG 22015G25KT NSW
EHLW - Leeuwarden Rnlaf, Netherlands
Afstand tot: NW 93 km
Gewijzigd: 16-02-2020 20:25
Bewolking  
Bewolking  
   Wind: ZW 33.3 km/h
Wind: ZW 33.3 km/h
Temperatuur: 8°C
Voelt als: 4°C
Dauwpunt: 6°C
Vochtigheid: 87%
Barometer: 995 hPa
Bewolking: Bewolking
Zicht: meer dan 10 km
Bewolking: Gedeeltelijk bewolkt 1700 ft,
Grotendeels bewolkt 2100 ft,
Bewolking 2500 ft
EHLW 161925Z AUTO 23018KT 9999 SCT017 BKN021 OVC025 08/06 Q0995 WHT
ETNT - Wittmundhaven(Ga, Germany
Afstand tot: NNO 100 km
Gewijzigd: 16-02-2020 20:20
Regen, Nevel, Grotendeels bewolkt  
Regen, Nevel, Grotendeels bewolkt  
   Wind: WZW 25.9 km/h
Wind: WZW 25.9 km/h
Temperatuur: 8°C
Voelt als: 4°C
Dauwpunt: 6°C
Vochtigheid: 87%
Barometer: 995 hPa
Bewolking: Grotendeels bewolkt
Zicht: 5 km
Bewolking: Licht bewolkt 1500 ft,
Grotendeels bewolkt 4000 ft
ETNT 161920Z 24014KT 5000 RA BR FEW015 BKN040 08/06 Q0995 WHT
ETND - Diepholz (ger-Af, Germany
Afstand tot: O 104 km
Gewijzigd: 14-02-2020 11:20
Verouderd
Grotendeels bewolkt  
Grotendeels bewolkt  
   Wind: WNW 13 km/h
Wind: WNW 13 km/h
Temperatuur: 6°C
Voelt als: 3°C
Dauwpunt: 5°C
Vochtigheid: 93%
Barometer: 1017 hPa
Bewolking: Grotendeels bewolkt
Zicht: 8 km
Bewolking: Licht bewolkt 600 ft,
Grotendeels bewolkt 800 ft
ETND 141020Z 29007KT 8000 FEW006 BKN008 06/05 Q1017 GRN
ETNT - Wittmundhaven(Ga, Germany
Afstand tot: NNO 102 km
Gewijzigd: 16-02-2020 20:20
Regen, Nevel, Grotendeels bewolkt  
Regen, Nevel, Grotendeels bewolkt  
   Wind: WZW 25.9 km/h
Wind: WZW 25.9 km/h
Temperatuur: 8°C
Voelt als: 4°C
Dauwpunt: 6°C
Vochtigheid: 87%
Barometer: 995 hPa
Bewolking: Grotendeels bewolkt
Zicht: 5 km
Bewolking: Licht bewolkt 1500 ft,
Grotendeels bewolkt 4000 ft
ETNT 161920Z 24014KT 5000 RA BR FEW015 BKN040 08/06 Q0995 WHT
EHDL - Deelen Rnlafb, Netherlands
Afstand tot: ZW 103 km
Gewijzigd: 16-02-2020 20:25
Wat regen mogelijk, Bewolking  
Wat regen mogelijk, Bewolking  
   Wind: WZW 27.8 km/h
Wind: WZW 27.8 km/h
Temperatuur: 8°C
Voelt als: 4°C
Dauwpunt: 7°C
Vochtigheid: 93%
Barometer: 1000 hPa
Bewolking: Bewolking
Zicht: meer dan 10 km
Bewolking: Licht bewolkt 1400 ft,
Grotendeels bewolkt 1500 ft,
Grotendeels bewolkt 5000 ft,
Bewolking 5700 ft
EHDL 161925Z AUTO 24015KT 190V280 9999 -RA FEW014 BKN015CB BKN050 OVC057 08/07 Q1000 WHT
EHMA - Awg-1 Sea, Netherlands
Afstand tot: NW 105 km
Gewijzigd: 15-02-2020 11:55
Verouderd
Bewolking  
Bewolking  
   Wind: ZZW 53.7 km/h
Wind: ZZW 53.7 km/h
Temperatuur: 9°C
Voelt als: 4°C
Dauwpunt: 8°C
Vochtigheid: 94%
Barometer: 1011 hPa
Bewolking: Bewolking
Zicht: meer dan 10 km
Bewolking: Gedeeltelijk bewolkt 600 ft,
Grotendeels bewolkt 700 ft,
Bewolking 800 ft
EHMA 151055Z AUTO 21029KT 170V260 9999 SCT006 BKN007 OVC008 09/08 Q1011
EDDW - Bremen, Germany
Afstand tot: ONO 135 km
Gewijzigd: 16-02-2020 20:20
Wat regen mogelijk, Grotendeels bewolkt  
Wat regen mogelijk, Grotendeels bewolkt  
   Wind: WNW 35.2 km/h
Wind: WNW 35.2 km/h
Temperatuur: 9°C
Voelt als: 5°C
Dauwpunt: 8°C
Vochtigheid: 94%
Barometer: 997 hPa
Bewolking: Grotendeels bewolkt
Zicht: 6 km
Bewolking: Licht bewolkt 1000 ft,
Grotendeels bewolkt 3800 ft
EDDW 161920Z 30019KT 6000 -RA FEW010 BKN038 09/08 Q0997 RERA NOSIG
EHVL - Vlieland Island, Netherlands
Afstand tot: WNW 138 km
Gewijzigd: 16-02-2020 20:25
Grotendeels bewolkt  
Grotendeels bewolkt  
   Wind: WZW 61.1 km/h
Wind: WZW 61.1 km/h
Temperatuur: 8°C
Voelt als: 2°C
Dauwpunt: 6°C
Vochtigheid: 87%
Barometer: 994 hPa
Bewolking: Grotendeels bewolkt
Zicht: meer dan 10 km
Bewolking: Licht bewolkt 2100 ft,
Gedeeltelijk bewolkt 3300 ft,
Grotendeels bewolkt 3900 ft
EHVL 161925Z AUTO 24033KT 9999 FEW021 SCT033 BKN039 08/06 Q0994 BLU
EDLV - Niederrhein, Germany
Afstand tot: ZZW 139 km
Gewijzigd: 16-02-2020 20:20
Nevel, Grotendeels bewolkt  
Nevel, Grotendeels bewolkt  
   Wind: Westen 31.5 km/h
Wind: Westen 31.5 km/h
Temperatuur: 8°C
Voelt als: 4°C
Dauwpunt: 7°C
Vochtigheid: 93%
Barometer: 1002 hPa
Bewolking: Grotendeels bewolkt
Zicht: 3 km
Bewolking: Grotendeels bewolkt 1700 ft
EDLV 161920Z 26017KT 3200 BR BKN017 08/07 Q1002 RESHRA
EHKD - De Kooy (navy), Netherlands
Afstand tot: W 144 km
Gewijzigd: 16-02-2020 20:25
Grotendeels bewolkt  
Grotendeels bewolkt  
   Wind: ZW 42.6 km/h<br />Gust to 42.6 km/h
Wind: ZW 42.6 km/h
Gust to 42.6 km/h
Temperatuur: 8°C
Voelt als: 3°C
Dauwpunt: 6°C
Vochtigheid: 87%
Barometer: 996 hPa
Bewolking: Grotendeels bewolkt
Zicht: meer dan 10 km
Bewolking: Licht bewolkt 1400 ft,
Grotendeels bewolkt 1600 ft,
Grotendeels bewolkt 2000 ft
EHKD 161925Z AUTO 23023G33KT 9999 FEW014 BKN016 BKN020 08/06 Q0996 WHT
EDLW - Dortmund/Wickede, Germany
Afstand tot: ZZO 150 km
Gewijzigd: 16-02-2020 20:20
Bewolking  
Bewolking  
   Wind: ZZW 50 km/h<br />Gust to 50 km/h
Wind: ZZW 50 km/h
Gust to 50 km/h
Temperatuur: 17°C
Dauwpunt: 7°C
Vochtigheid: 52%
Barometer: 999 hPa
Bewolking: Bewolking
Zicht: meer dan 10 km
Bewolking: Bewolking 5000 ft
EDLW 161920Z 20027G37KT 9999 OVC050 17/07 Q0999
EHVK - Volkel Rnlafb, Netherlands
Afstand tot: ZZW 149 km
Gewijzigd: 16-02-2020 20:25
Wat regen mogelijk, Bewolking  
Wat regen mogelijk, Bewolking  
   Wind: WZW 27.8 km/h<br />Gust to 27.8 km/h
Wind: WZW 27.8 km/h
Gust to 27.8 km/h
Temperatuur: 8°C
Voelt als: 4°C
Dauwpunt: 7°C
Vochtigheid: 93%
Barometer: 1001 hPa
Bewolking: Bewolking
Zicht: meer dan 10 km
Bewolking: Licht bewolkt 1800 ft,
Gedeeltelijk bewolkt 5600 ft,
Bewolking 6100 ft
EHVK 161925Z AUTO 25015G26KT 220V290 9999 -RA FEW018 SCT056 OVC061 08/07 Q1001 RERA REDZ BLU
EDLW - Dortmund/Wickede, Germany
Afstand tot: ZZO 150 km
Gewijzigd: 16-02-2020 20:20
Bewolking  
Bewolking  
   Wind: ZZW 50 km/h<br />Gust to 50 km/h
Wind: ZZW 50 km/h
Gust to 50 km/h
Temperatuur: 17°C
Dauwpunt: 7°C
Vochtigheid: 52%
Barometer: 999 hPa
Bewolking: Bewolking
Zicht: meer dan 10 km
Bewolking: Bewolking 5000 ft
EDLW 161920Z 20027G37KT 9999 OVC050 17/07 Q0999
EHMG - L9-Ff-1 Sea, Netherlands
Afstand tot: NW 155 km
Gewijzigd: 16-02-2020 20:25
Gedeeltelijk bewolkt  
Gedeeltelijk bewolkt  
   Wind: WZW 74.1 km/h
Wind: WZW 74.1 km/h
Temperatuur: 9°C
Voelt als: 3°C
Dauwpunt: 6°C
Vochtigheid: 82%
Barometer: 993 hPa
Bewolking: Gedeeltelijk bewolkt
Zicht: meer dan 10 km
Bewolking: Licht bewolkt 1500 ft,
Gedeeltelijk bewolkt 4900 ft
EHMG 161925Z AUTO 24040KT 9999 FEW015CB SCT049 09/06 Q0993
ETHB - Buckeburg(Ger-Ar, Germany
Afstand tot: OZO 161 km
Gewijzigd: 16-02-2020 20:20
  
  
   Wind: ZW 38.9 km/h<br />Gust to 38.9 km/h
Wind: ZW 38.9 km/h
Gust to 38.9 km/h
Temperatuur: 18°C
Dauwpunt: 6°C
Vochtigheid: 46%
Barometer: 996 hPa
Zicht: meer dan 10 km
ETHB 161920Z AUTO 23021G33KT 9999 // ////// 18/06 Q0996 ///
ETMN - Nordholz (ger-Na, Germany
Afstand tot: NO 164 km
Gewijzigd: 16-02-2020 20:20
Wat regen mogelijk, Bewolking  
Wat regen mogelijk, Bewolking  
   Wind: Westen 24.1 km/h
Wind: Westen 24.1 km/h
Temperatuur: 7°C
Voelt als: 3°C
Dauwpunt: 6°C
Vochtigheid: 93%
Barometer: 994 hPa
Bewolking: Bewolking
Zicht: 8 km
Bewolking: Licht bewolkt 1000 ft,
Bewolking 4200 ft
ETMN 161920Z 26013KT 8000 -RA FEW010 OVC042 07/06 Q0994 RERA BLU
EDDL - Duesseldorf, Germany
Afstand tot: Z 165 km
Gewijzigd: 16-02-2020 20:20
Regen, Grotendeels bewolkt  
Regen, Grotendeels bewolkt  
   Wind: WNW 33.3 km/h
Wind: WNW 33.3 km/h
Temperatuur: 9°C
Voelt als: 5°C
Dauwpunt: 8°C
Vochtigheid: 94%
Barometer: 1003 hPa
Bewolking: Grotendeels bewolkt
Zicht: 9 km
Bewolking: Gedeeltelijk bewolkt 1200 ft,
Gedeeltelijk bewolkt 2000 ft,
Grotendeels bewolkt 3400 ft
EDDL 161920Z 30018KT 270V330 9000 RA SCT012 SCT020CB BKN034 09/08 Q1003 BECMG 25015G25KT
EDLN - Monchengladbach, Germany
Afstand tot: Z 174 km
Gewijzigd: 16-02-2020 20:20
Zware buien, Bewolking  
Zware buien, Bewolking  
   Wind: WNW 33.3 km/h
Wind: WNW 33.3 km/h
Temperatuur: 9°C
Voelt als: 5°C
Dauwpunt: 8°C
Vochtigheid: 94%
Barometer: 1003 hPa
Bewolking: Bewolking
Zicht: 6 km
Bewolking: Grotendeels bewolkt 1400 ft,
Bewolking 4600 ft
EDLN 161920Z 30018KT 260V320 6000 +RA BKN014 OVC046 09/08 Q1003

Script ontwikkeld door  Saratoga-weather.org Aangepast voor de template door  Weerstation Leuven

U vindt ons ook hier:

Het Weer Aktueel

European Weather Network

Weather Underground

Wetterpage 24

Apparatuur in gebruik:

Weerstation
Davis VP2

Weerprogramma
Meteohub

Hardware
RaspberryPI, Wireless Weather Envoy, MeteoStick, TP-Link MR3020

Leverancier
Weerhuisje.nl weerstations

Davis VP2

Meteohub

RaspberryPI, Wireless Weather Envoy, MeteoStick, TP-Link MR3020

Weerhuisje.nl weerstations